createdAt,value
2023-04-08T00:00:44.615Z,10.92
2023-04-08T00:01:46.907Z,10.89
2023-04-08T00:02:49.354Z,10.89
2023-04-08T00:03:51.719Z,10.87
2023-04-08T00:04:54.235Z,10.88
2023-04-08T00:05:56.488Z,10.85
2023-04-08T00:06:59.649Z,10.85
2023-04-08T00:08:02.010Z,10.83
2023-04-08T00:09:04.180Z,10.82
2023-04-08T00:10:08.203Z,10.83
2023-04-08T00:11:10.505Z,10.83
2023-04-08T00:12:12.687Z,10.83
2023-04-08T00:13:14.862Z,10.82
2023-04-08T00:14:17.036Z,10.85
2023-04-08T00:15:20.961Z,10.87
2023-04-08T00:16:23.343Z,10.85
2023-04-08T00:17:25.612Z,10.86
2023-04-08T00:18:27.688Z,10.83
2023-04-08T00:19:29.817Z,10.83
2023-04-08T00:20:32.102Z,10.81
2023-04-08T00:21:34.299Z,10.81
2023-04-08T00:22:36.702Z,10.82
2023-04-08T00:23:38.873Z,10.78
2023-04-08T00:24:40.945Z,10.80
2023-04-08T00:25:43.280Z,10.79
2023-04-08T00:26:46.032Z,10.77
2023-04-08T00:27:48.279Z,10.79
2023-04-08T00:28:51.196Z,10.76
2023-04-08T00:29:53.744Z,10.79
2023-04-08T00:30:56.508Z,10.76
2023-04-08T00:31:58.961Z,10.76
2023-04-08T00:33:02.532Z,10.76
2023-04-08T00:34:04.901Z,10.81
2023-04-08T00:35:07.612Z,10.79
2023-04-08T00:36:10.857Z,10.80
2023-04-08T00:37:12.902Z,10.79
2023-04-08T00:38:15.278Z,10.80
2023-04-08T00:39:17.447Z,10.80
2023-04-08T00:40:20.831Z,10.77
2023-04-08T00:41:23.099Z,10.76
2023-04-08T00:42:25.640Z,10.75
2023-04-08T00:43:27.968Z,10.76
2023-04-08T00:44:30.141Z,10.74
2023-04-08T00:45:33.509Z,10.73
2023-04-08T00:46:38.606Z,10.73
2023-04-08T00:47:41.094Z,10.69
2023-04-08T00:48:43.916Z,10.68
2023-04-08T00:49:46.166Z,10.68
2023-04-08T00:50:50.418Z,10.68
2023-04-08T00:51:55.971Z,10.71
2023-04-08T00:53:03.054Z,10.70
2023-04-08T00:54:10.846Z,10.70
2023-04-08T00:55:15.692Z,10.69
2023-04-08T00:56:24.969Z,10.70
2023-04-08T00:57:34.423Z,10.71
2023-04-08T00:58:41.537Z,10.75
2023-04-08T00:59:46.135Z,10.76
2023-04-08T01:00:54.739Z,10.75
2023-04-08T01:02:02.086Z,10.75
2023-04-08T01:03:20.545Z,10.76
2023-04-08T01:05:58.502Z,10.93
2023-04-08T01:07:04.474Z,10.71
2023-04-08T01:08:09.566Z,10.78
2023-04-08T01:09:15.045Z,10.78
2023-04-08T01:10:24.934Z,10.77
2023-04-08T01:11:30.808Z,10.77
2023-04-08T01:12:36.993Z,10.78
2023-04-08T01:13:41.815Z,10.79
2023-04-08T01:14:46.542Z,10.75
2023-04-08T01:15:49.610Z,10.79
2023-04-08T01:16:58.411Z,10.74
2023-04-08T01:18:03.234Z,10.78
2023-04-08T01:19:08.310Z,10.75
2023-04-08T01:20:14.670Z,10.74
2023-04-08T01:21:19.751Z,10.74
2023-04-08T01:22:53.804Z,10.76
2023-04-08T01:24:26.948Z,10.74
2023-04-08T01:25:33.594Z,10.79
2023-04-08T01:26:36.741Z,10.78
2023-04-08T01:27:39.372Z,10.77
2023-04-08T01:28:41.828Z,10.77
2023-04-08T01:29:46.697Z,10.73
2023-04-08T01:30:50.164Z,10.72
2023-04-08T01:31:54.887Z,10.73
2023-04-08T01:32:59.471Z,10.72
2023-04-08T01:34:04.388Z,10.74
2023-04-08T01:35:08.870Z,10.74
2023-04-08T01:36:12.172Z,10.77
2023-04-08T01:37:15.519Z,10.76
2023-04-08T01:38:20.244Z,10.78
2023-04-08T01:39:25.809Z,10.78
2023-04-08T01:40:29.197Z,10.77
2023-04-08T01:41:35.084Z,10.77
2023-04-08T01:42:38.101Z,10.78
2023-04-08T01:43:43.469Z,10.78
2023-04-08T01:44:46.390Z,10.78
2023-04-08T01:45:49.921Z,10.78
2023-04-08T01:46:54.739Z,10.80
2023-04-08T01:47:59.433Z,10.79
2023-04-08T01:49:02.085Z,10.80
2023-04-08T01:50:06.199Z,10.80
2023-04-08T01:51:09.421Z,10.78
2023-04-08T01:52:12.955Z,10.78
2023-04-08T01:53:15.186Z,10.77
2023-04-08T01:54:17.651Z,10.74
2023-04-08T01:55:20.052Z,10.78
2023-04-08T01:56:23.090Z,10.78
2023-04-08T01:57:29.151Z,10.76
2023-04-08T01:59:45.118Z,10.84
2023-04-08T02:00:48.866Z,10.64
2023-04-08T02:01:52.895Z,10.68
2023-04-08T02:02:56.804Z,10.69
2023-04-08T02:04:01.505Z,10.66
2023-04-08T02:05:04.273Z,10.67
2023-04-08T02:06:07.077Z,10.66
2023-04-08T02:07:09.354Z,10.67
2023-04-08T02:08:12.177Z,10.68
2023-04-08T02:09:14.263Z,10.68
2023-04-08T02:10:16.524Z,10.66
2023-04-08T02:11:18.698Z,10.68
2023-04-08T02:12:21.412Z,10.67
2023-04-08T02:13:23.748Z,10.66
2023-04-08T02:14:25.939Z,10.67
2023-04-08T02:16:51.298Z,10.77
2023-04-08T02:17:57.225Z,10.58
2023-04-08T02:20:29.717Z,10.77
2023-04-08T02:21:35.606Z,10.58
2023-04-08T02:23:01.197Z,10.61
2023-04-08T02:24:07.000Z,10.65
2023-04-08T02:25:12.907Z,10.67
2023-04-08T02:26:16.941Z,10.69
2023-04-08T02:27:20.152Z,10.66
2023-04-08T02:28:25.170Z,10.63
2023-04-08T02:29:30.987Z,10.62
2023-04-08T02:30:35.475Z,10.60
2023-04-08T02:31:40.834Z,10.62
2023-04-08T02:32:45.877Z,10.59
2023-04-08T02:33:50.701Z,10.59
2023-04-08T02:34:55.581Z,10.60
2023-04-08T02:35:59.312Z,10.60
2023-04-08T02:37:02.769Z,10.62
2023-04-08T02:38:05.251Z,10.60
2023-04-08T02:39:07.866Z,10.59
2023-04-08T02:40:28.189Z,10.65
2023-04-08T02:41:31.414Z,10.61
2023-04-08T02:42:33.659Z,10.65
2023-04-08T02:43:35.836Z,10.64
2023-04-08T02:44:39.956Z,10.61
2023-04-08T02:45:43.870Z,10.58
2023-04-08T02:46:46.252Z,10.56
2023-04-08T02:47:48.623Z,10.55
2023-04-08T02:48:51.096Z,10.54
2023-04-08T02:49:53.611Z,10.56
2023-04-08T02:50:56.001Z,10.58
2023-04-08T02:51:58.267Z,10.56
2023-04-08T02:53:00.886Z,10.57
2023-04-08T02:54:03.292Z,10.58
2023-04-08T02:55:06.612Z,10.59
2023-04-08T02:56:12.452Z,10.58
2023-04-08T02:57:14.655Z,10.56
2023-04-08T02:58:17.116Z,10.55
2023-04-08T02:59:19.807Z,10.55
2023-04-08T03:00:22.080Z,10.56
2023-04-08T03:01:24.432Z,10.57
2023-04-08T03:02:26.739Z,10.57
2023-04-08T03:03:29.123Z,10.58
2023-04-08T03:04:31.403Z,10.59
2023-04-08T03:05:33.724Z,10.60
2023-04-08T03:06:36.197Z,10.61
2023-04-08T03:07:38.847Z,10.60
2023-04-08T03:08:41.064Z,10.57
2023-04-08T03:09:43.723Z,10.57
2023-04-08T03:10:46.264Z,10.56
2023-04-08T03:11:48.471Z,10.59
2023-04-08T03:12:50.729Z,10.59
2023-04-08T03:13:53.030Z,10.61
2023-04-08T03:14:55.733Z,10.58
2023-04-08T03:15:57.937Z,10.58
2023-04-08T03:17:00.516Z,10.56
2023-04-08T03:18:04.369Z,10.58
2023-04-08T03:19:07.116Z,10.59
2023-04-08T03:20:10.484Z,10.58
2023-04-08T03:21:13.863Z,10.59
2023-04-08T03:22:16.137Z,10.58
2023-04-08T03:23:18.421Z,10.59
2023-04-08T03:24:21.126Z,10.58
2023-04-08T03:25:23.359Z,10.56
2023-04-08T03:26:25.907Z,10.55
2023-04-08T03:27:28.444Z,10.57
2023-04-08T03:28:30.630Z,10.60
2023-04-08T03:29:32.954Z,10.57
2023-04-08T03:30:35.872Z,10.57
2023-04-08T03:31:38.353Z,10.56
2023-04-08T03:32:40.634Z,10.55
2023-04-08T03:33:42.976Z,10.55
2023-04-08T03:34:45.446Z,10.56
2023-04-08T03:35:47.687Z,10.57
2023-04-08T03:36:50.018Z,10.58
2023-04-08T03:37:52.153Z,10.62
2023-04-08T03:38:54.520Z,10.62
2023-04-08T03:39:57.458Z,10.62
2023-04-08T03:41:00.127Z,10.63
2023-04-08T03:42:02.889Z,10.62
2023-04-08T03:43:04.986Z,10.63
2023-04-08T03:44:07.058Z,10.63
2023-04-08T03:45:09.874Z,10.65
2023-04-08T03:46:12.302Z,10.64
2023-04-08T03:47:14.464Z,10.62
2023-04-08T03:48:16.658Z,10.59
2023-04-08T03:49:18.740Z,10.60
2023-04-08T03:50:21.528Z,10.56
2023-04-08T03:51:23.813Z,10.56
2023-04-08T03:52:26.484Z,10.57
2023-04-08T03:53:28.785Z,10.58
2023-04-08T03:54:31.029Z,10.56
2023-04-08T03:55:33.746Z,10.57
2023-04-08T03:56:36.065Z,10.56
2023-04-08T03:57:38.116Z,10.55
2023-04-08T03:58:40.316Z,10.55
2023-04-08T03:59:42.548Z,10.54
2023-04-08T04:00:44.800Z,10.52
2023-04-08T04:01:47.019Z,10.54
2023-04-08T04:02:49.402Z,10.54
2023-04-08T04:03:52.259Z,10.53
2023-04-08T04:04:54.781Z,10.53
2023-04-08T04:05:57.195Z,10.53
2023-04-08T04:06:59.720Z,10.51
2023-04-08T04:08:02.424Z,10.51
2023-04-08T04:09:04.427Z,10.51
2023-04-08T04:10:08.090Z,10.50
2023-04-08T04:11:10.318Z,10.48
2023-04-08T04:12:12.581Z,10.48
2023-04-08T04:13:14.763Z,10.48
2023-04-08T04:14:17.451Z,10.48
2023-04-08T04:15:19.541Z,10.48
2023-04-08T04:16:21.883Z,10.46
2023-04-08T04:17:24.609Z,10.47
2023-04-08T04:18:26.788Z,10.50
2023-04-08T04:19:32.168Z,10.49
2023-04-08T04:20:34.591Z,10.52
2023-04-08T04:21:36.757Z,10.51
2023-04-08T04:22:39.122Z,10.51
2023-04-08T04:23:41.308Z,10.51
2023-04-08T04:24:48.397Z,10.52
2023-04-08T04:25:50.637Z,10.51
2023-04-08T04:26:52.904Z,10.52
2023-04-08T04:27:55.556Z,10.54
2023-04-08T04:28:57.721Z,10.50
2023-04-08T04:30:00.363Z,10.50
2023-04-08T04:31:02.576Z,10.51
2023-04-08T04:32:05.164Z,10.49
2023-04-08T04:33:08.647Z,10.51
2023-04-08T04:34:10.849Z,10.51
2023-04-08T04:35:13.136Z,10.54
2023-04-08T04:36:16.566Z,10.56
2023-04-08T04:37:18.724Z,10.54
2023-04-08T04:38:20.928Z,10.56
2023-04-08T04:39:23.599Z,10.54
2023-04-08T04:40:25.903Z,10.57
2023-04-08T04:41:27.975Z,10.55
2023-04-08T04:42:30.453Z,10.59
2023-04-08T04:43:32.650Z,10.58
2023-04-08T04:44:34.834Z,10.59
2023-04-08T04:45:37.606Z,10.63
2023-04-08T04:46:39.958Z,10.63
2023-04-08T04:47:42.233Z,10.63
2023-04-08T04:48:44.472Z,10.69
2023-04-08T04:49:46.657Z,10.66
2023-04-08T04:50:56.465Z,10.68
2023-04-08T04:51:58.670Z,10.69
2023-04-08T04:53:00.733Z,10.69
2023-04-08T04:54:03.442Z,10.72
2023-04-08T04:55:06.362Z,10.72
2023-04-08T04:56:09.105Z,10.74
2023-04-08T04:57:11.171Z,10.76
2023-04-08T04:58:13.348Z,10.77
2023-04-08T04:59:15.606Z,10.83
2023-04-08T05:00:19.092Z,10.79
2023-04-08T05:01:23.384Z,10.80
2023-04-08T05:02:26.043Z,10.83
2023-04-08T05:03:29.026Z,10.85
2023-04-08T05:04:31.634Z,10.87
2023-04-08T05:05:33.888Z,10.87
2023-04-08T05:06:36.296Z,10.87
2023-04-08T05:07:38.713Z,10.89
2023-04-08T05:08:40.867Z,10.87
2023-04-08T05:09:42.815Z,10.91
2023-04-08T05:10:45.624Z,10.91
2023-04-08T05:11:48.249Z,10.92
2023-04-08T05:12:50.516Z,10.91
2023-04-08T05:13:52.866Z,10.90
2023-04-08T05:14:54.939Z,10.90
2023-04-08T05:15:57.586Z,10.89
2023-04-08T05:17:00.011Z,10.90
2023-04-08T05:18:02.136Z,10.92
2023-04-08T05:19:05.035Z,10.95
2023-04-08T05:20:10.059Z,10.96
2023-04-08T05:21:12.284Z,10.95
2023-04-08T05:22:14.384Z,10.95
2023-04-08T05:23:16.633Z,10.97
2023-04-08T05:24:18.807Z,11.01
2023-04-08T05:25:20.873Z,11.01
2023-04-08T05:26:23.115Z,11.01
2023-04-08T05:27:25.333Z,11.02
2023-04-08T05:28:27.587Z,11.05
2023-04-08T05:29:30.154Z,11.03
2023-04-08T05:30:32.815Z,11.04
2023-04-08T05:31:35.161Z,11.06
2023-04-08T05:32:37.456Z,11.08
2023-04-08T05:33:39.539Z,11.11
2023-04-08T05:34:42.903Z,11.11
2023-04-08T05:35:45.614Z,11.10
2023-04-08T05:37:58.705Z,11.26
2023-04-08T05:39:02.121Z,11.12
2023-04-08T05:40:06.355Z,11.14
2023-04-08T05:41:08.581Z,11.18
2023-04-08T05:42:10.629Z,11.18
2023-04-08T05:43:13.455Z,11.21
2023-04-08T05:44:15.783Z,11.22
2023-04-08T05:45:18.033Z,11.25
2023-04-08T05:46:20.665Z,11.27
2023-04-08T05:47:22.822Z,11.26
2023-04-08T05:48:25.585Z,11.29
2023-04-08T05:49:28.161Z,11.31
2023-04-08T05:50:30.521Z,11.34
2023-04-08T05:51:33.195Z,11.36
2023-04-08T05:52:35.369Z,11.37
2023-04-08T05:53:37.563Z,11.41
2023-04-08T05:54:45.002Z,11.41
2023-04-08T05:55:47.651Z,11.45
2023-04-08T05:56:50.280Z,11.50
2023-04-08T05:57:54.719Z,11.51
2023-04-08T06:00:33.502Z,11.67
2023-04-08T06:01:37.543Z,11.55
2023-04-08T06:02:43.139Z,11.60
2023-04-08T06:03:53.622Z,11.61
2023-04-08T06:04:57.895Z,11.64
2023-04-08T06:07:10.650Z,11.79
2023-04-08T06:08:12.839Z,11.67
2023-04-08T06:09:14.926Z,11.70
2023-04-08T06:10:18.115Z,11.72
2023-04-08T06:11:20.307Z,11.75
2023-04-08T06:12:22.426Z,11.74
2023-04-08T06:13:25.139Z,11.77
2023-04-08T06:14:27.294Z,11.79
2023-04-08T06:15:29.492Z,11.80
2023-04-08T06:16:31.668Z,11.82
2023-04-08T06:17:35.987Z,11.82
2023-04-08T06:18:38.444Z,11.84
2023-04-08T06:19:40.626Z,11.86
2023-04-08T06:20:43.411Z,11.92
2023-04-08T06:21:45.555Z,11.94
2023-04-08T06:22:47.747Z,11.95
2023-04-08T06:23:49.800Z,11.98
2023-04-08T06:24:51.961Z,11.97
2023-04-08T06:25:54.269Z,11.99
2023-04-08T06:26:56.555Z,12.00
2023-04-08T06:27:58.761Z,12.02
2023-04-08T06:29:00.936Z,12.04
2023-04-08T06:30:03.278Z,12.04
2023-04-08T06:31:05.623Z,12.06
2023-04-08T06:32:07.812Z,12.09
2023-04-08T06:33:10.513Z,12.11
2023-04-08T06:34:13.153Z,12.11
2023-04-08T06:35:15.490Z,12.14
2023-04-08T06:36:17.671Z,12.15
2023-04-08T06:37:20.642Z,12.17
2023-04-08T06:38:22.902Z,12.18
2023-04-08T06:39:25.101Z,12.20
2023-04-08T06:40:27.678Z,12.18
2023-04-08T06:41:30.362Z,12.22
2023-04-08T06:42:34.485Z,12.21
2023-04-08T06:43:44.533Z,12.21
2023-04-08T06:44:46.772Z,12.25
2023-04-08T06:45:49.385Z,12.26
2023-04-08T06:46:52.233Z,12.27
2023-04-08T06:47:54.930Z,12.28
2023-04-08T06:48:57.063Z,12.31
2023-04-08T06:49:59.255Z,12.32
2023-04-08T06:51:02.048Z,12.36
2023-04-08T06:52:04.287Z,12.38
2023-04-08T06:53:06.348Z,12.41
2023-04-08T06:54:09.077Z,12.42
2023-04-08T06:55:11.461Z,12.44
2023-04-08T06:56:14.394Z,12.49
2023-04-08T06:57:16.473Z,12.52
2023-04-08T06:58:18.648Z,12.54
2023-04-08T06:59:20.821Z,12.55
2023-04-08T07:00:24.178Z,12.58
2023-04-08T07:01:26.493Z,12.59
2023-04-08T07:02:28.835Z,12.61
2023-04-08T07:03:31.110Z,12.64
2023-04-08T07:04:33.351Z,12.64
2023-04-08T07:05:35.720Z,12.68
2023-04-08T07:06:38.535Z,12.70
2023-04-08T07:07:40.943Z,12.72
2023-04-08T07:08:43.110Z,12.75
2023-04-08T07:09:45.308Z,12.78
2023-04-08T07:10:47.677Z,12.82
2023-04-08T07:11:50.254Z,12.83
2023-04-08T07:12:53.581Z,12.84
2023-04-08T07:13:55.792Z,12.84
2023-04-08T07:14:58.375Z,12.85
2023-04-08T07:16:00.568Z,12.86
2023-04-08T07:17:02.781Z,12.89
2023-04-08T07:18:05.037Z,12.86
2023-04-08T07:19:07.194Z,12.88
2023-04-08T07:20:11.428Z,12.90
2023-04-08T07:21:14.488Z,12.91
2023-04-08T07:22:16.704Z,12.95
2023-04-08T07:23:20.517Z,12.96
2023-04-08T07:24:23.017Z,12.99
2023-04-08T07:25:25.190Z,12.99
2023-04-08T07:26:27.354Z,12.99
2023-04-08T07:27:29.434Z,12.98
2023-04-08T07:28:31.935Z,13.01
2023-04-08T07:29:33.974Z,13.02
2023-04-08T07:30:36.570Z,13.02
2023-04-08T07:31:38.806Z,13.05
2023-04-08T07:32:40.966Z,13.09
2023-04-08T07:33:44.612Z,13.08
2023-04-08T07:34:47.366Z,13.11
2023-04-08T07:35:49.433Z,13.11
2023-04-08T07:36:52.142Z,13.15
2023-04-08T07:38:01.683Z,13.17
2023-04-08T07:39:08.166Z,13.19
2023-04-08T07:40:11.615Z,13.23
2023-04-08T07:41:13.709Z,13.30
2023-04-08T07:42:15.878Z,13.34
2023-04-08T07:43:18.388Z,13.39
2023-04-08T07:44:20.483Z,13.45
2023-04-08T07:45:22.513Z,13.51
2023-04-08T07:46:25.300Z,13.58
2023-04-08T07:47:29.595Z,13.62
2023-04-08T07:48:33.621Z,13.66
2023-04-08T07:49:35.674Z,13.66
2023-04-08T07:51:08.067Z,13.70
2023-04-08T07:51:42.852Z,13.71
2023-04-08T07:52:44.950Z,13.72
2023-04-08T07:53:47.124Z,13.74
2023-04-08T07:54:49.224Z,13.72
2023-04-08T07:55:51.700Z,13.74
2023-04-08T07:56:54.327Z,13.71
2023-04-08T07:57:57.028Z,13.70
2023-04-08T07:58:59.548Z,13.68
2023-04-08T08:00:01.874Z,13.66
2023-04-08T08:01:05.030Z,13.66
2023-04-08T08:02:07.285Z,13.67
2023-04-08T08:03:10.688Z,13.68
2023-04-08T08:04:13.065Z,13.69
2023-04-08T08:05:15.630Z,13.69
2023-04-08T08:06:18.198Z,13.74
2023-04-08T08:07:20.242Z,13.76
2023-04-08T08:08:22.302Z,13.79
2023-04-08T08:09:25.521Z,13.79
2023-04-08T08:10:27.768Z,13.81
2023-04-08T08:11:30.506Z,13.82
2023-04-08T08:12:33.164Z,13.83
2023-04-08T08:13:35.349Z,13.83
2023-04-08T08:14:38.013Z,13.85
2023-04-08T08:15:40.248Z,13.86
2023-04-08T08:16:42.515Z,13.86
2023-04-08T08:17:44.596Z,13.87
2023-04-08T08:18:46.842Z,13.86
2023-04-08T08:19:49.083Z,13.88
2023-04-08T08:20:51.302Z,13.90
2023-04-08T08:21:53.456Z,13.91
2023-04-08T08:22:57.860Z,13.91
2023-04-08T08:24:00.205Z,13.93
2023-04-08T08:25:02.281Z,13.93
2023-04-08T08:26:07.131Z,13.94
2023-04-08T08:27:12.988Z,13.95
2023-04-08T08:28:15.192Z,13.96
2023-04-08T08:29:17.929Z,13.95
2023-04-08T08:30:20.960Z,13.97
2023-04-08T08:31:23.907Z,14.00
2023-04-08T08:32:26.508Z,13.99
2023-04-08T08:33:28.863Z,14.02
2023-04-08T08:34:32.073Z,14.05
2023-04-08T08:35:34.323Z,14.06
2023-04-08T08:36:37.116Z,14.06
2023-04-08T08:37:39.321Z,14.07
2023-04-08T08:38:41.391Z,14.08
2023-04-08T08:39:43.469Z,14.11
2023-04-08T08:40:46.756Z,14.13
2023-04-08T08:41:48.893Z,14.14
2023-04-08T08:42:52.202Z,14.15
2023-04-08T08:43:54.594Z,14.16
2023-04-08T08:44:56.760Z,14.18
2023-04-08T08:45:59.245Z,14.20
2023-04-08T08:47:04.632Z,14.22
2023-04-08T08:48:07.469Z,14.25
2023-04-08T08:49:10.069Z,14.27
2023-04-08T08:50:12.430Z,14.30
2023-04-08T08:51:14.699Z,14.31
2023-04-08T08:52:17.078Z,14.32
2023-04-08T08:53:19.270Z,14.32
2023-04-08T08:54:21.417Z,14.33
2023-04-08T08:56:28.391Z,14.39
2023-04-08T08:57:30.672Z,14.43
2023-04-08T08:58:32.811Z,14.47
2023-04-08T08:59:35.409Z,14.48
2023-04-08T09:00:40.107Z,14.52
2023-04-08T09:01:42.286Z,14.53
2023-04-08T09:02:45.223Z,14.55
2023-04-08T09:05:03.657Z,14.69
2023-04-08T09:06:06.590Z,14.62
2023-04-08T09:07:11.129Z,14.64
2023-04-08T09:08:33.848Z,14.66
2023-04-08T09:11:20.061Z,14.81
2023-04-08T09:12:24.349Z,14.71
2023-04-08T09:13:30.386Z,14.74
2023-04-08T09:14:32.681Z,14.75
2023-04-08T09:15:35.166Z,14.79
2023-04-08T09:16:41.040Z,14.82
2023-04-08T09:17:43.479Z,14.87
2023-04-08T09:18:47.389Z,14.91
2023-04-08T09:20:11.477Z,14.94
2023-04-08T09:21:15.227Z,14.99
2023-04-08T09:22:17.935Z,15.02
2023-04-08T09:23:20.091Z,15.05
2023-04-08T09:24:29.689Z,15.07
2023-04-08T09:25:33.264Z,15.07
2023-04-08T09:26:36.411Z,15.09
2023-04-08T09:27:39.687Z,15.11
2023-04-08T09:28:43.790Z,15.10
2023-04-08T09:29:46.426Z,15.09
2023-04-08T09:30:48.586Z,15.09
2023-04-08T09:31:59.373Z,15.09
2023-04-08T09:33:01.746Z,15.09
2023-04-08T09:35:19.599Z,15.22
2023-04-08T09:36:23.216Z,15.12
2023-04-08T09:37:25.797Z,15.11
2023-04-08T09:38:27.958Z,15.10
2023-04-08T09:39:30.646Z,15.09
2023-04-08T09:40:34.511Z,15.09
2023-04-08T09:41:38.611Z,15.10
2023-04-08T09:42:43.007Z,15.10
2023-04-08T09:43:49.870Z,15.08
2023-04-08T09:44:53.578Z,15.08
2023-04-08T09:45:58.452Z,15.09
2023-04-08T09:47:07.267Z,15.12
2023-04-08T09:48:16.498Z,15.13
2023-04-08T09:49:45.647Z,15.17
2023-04-08T09:50:50.387Z,15.18
2023-04-08T09:53:21.007Z,15.34
2023-04-08T09:54:27.379Z,15.25
2023-04-08T09:55:32.266Z,15.27
2023-04-08T09:56:38.152Z,15.28
2023-04-08T09:57:45.430Z,15.30
2023-04-08T09:59:06.391Z,15.30
2023-04-08T10:00:17.482Z,15.33
2023-04-08T10:01:26.183Z,15.37
2023-04-08T10:02:32.027Z,15.41
2023-04-08T10:03:47.455Z,15.42
2023-04-08T10:04:52.445Z,15.44
2023-04-08T10:05:58.399Z,15.44
2023-04-08T10:07:04.095Z,15.43
2023-04-08T10:08:07.868Z,15.43
2023-04-08T10:09:10.570Z,15.43
2023-04-08T10:10:14.671Z,15.44
2023-04-08T10:11:17.193Z,15.45
2023-04-08T10:12:20.421Z,15.43
2023-04-08T10:13:24.432Z,15.44
2023-04-08T10:14:26.666Z,15.42
2023-04-08T10:15:33.705Z,15.44
2023-04-08T10:16:36.538Z,15.44
2023-04-08T10:17:38.655Z,15.46
2023-04-08T10:18:40.802Z,15.49
2023-04-08T10:19:43.351Z,15.51
2023-04-08T10:20:47.425Z,15.52
2023-04-08T10:21:50.167Z,15.52
2023-04-08T10:22:53.157Z,15.54
2023-04-08T10:23:57.694Z,15.54
2023-04-08T10:25:36.078Z,15.55
2023-04-08T10:26:41.851Z,15.54
2023-04-08T10:27:44.982Z,15.57
2023-04-08T10:28:47.621Z,15.54
2023-04-08T10:29:49.568Z,15.55
2023-04-08T10:30:54.318Z,15.53
2023-04-08T10:31:56.709Z,15.53
2023-04-08T10:32:59.593Z,15.52
2023-04-08T10:34:16.277Z,15.52
2023-04-08T10:35:29.431Z,15.53
2023-04-08T10:36:31.803Z,15.53
2023-04-08T10:37:34.001Z,15.55
2023-04-08T10:38:36.682Z,15.54
2023-04-08T10:39:38.890Z,15.54
2023-04-08T10:40:42.126Z,15.54
2023-04-08T10:41:45.428Z,15.54
2023-04-08T10:42:49.855Z,15.55
2023-04-08T10:43:52.280Z,15.57
2023-04-08T10:44:58.684Z,15.58
2023-04-08T10:46:02.054Z,15.61
2023-04-08T10:47:04.210Z,15.63
2023-04-08T10:48:18.153Z,15.67
2023-04-08T10:49:20.387Z,15.68
2023-04-08T10:50:23.063Z,15.71
2023-04-08T10:51:25.689Z,15.75
2023-04-08T10:52:28.356Z,15.78
2023-04-08T10:53:33.995Z,15.81
2023-04-08T10:54:36.987Z,15.85
2023-04-08T10:55:39.212Z,15.88
2023-04-08T10:56:52.071Z,15.91
2023-04-08T10:57:57.000Z,15.96
2023-04-08T10:58:59.103Z,15.98
2023-04-08T11:00:02.075Z,16.00
2023-04-08T11:01:05.814Z,16.04
2023-04-08T11:02:13.547Z,16.06
2023-04-08T11:03:16.145Z,16.07
2023-04-08T11:04:18.487Z,16.10
2023-04-08T11:05:22.873Z,16.12
2023-04-08T11:06:25.637Z,16.13
2023-04-08T11:07:27.808Z,16.15
2023-04-08T11:08:33.587Z,16.15
2023-04-08T11:09:37.233Z,16.17
2023-04-08T11:10:40.115Z,16.20
2023-04-08T11:11:44.347Z,16.23
2023-04-08T11:12:47.414Z,16.26
2023-04-08T11:13:53.793Z,16.30
2023-04-08T11:14:54.695Z,16.33
2023-04-08T11:16:00.382Z,16.36
2023-04-08T11:17:03.435Z,16.38
2023-04-08T11:18:05.869Z,16.39
2023-04-08T11:19:07.930Z,16.40
2023-04-08T11:20:10.929Z,16.42
2023-04-08T11:21:13.079Z,16.43
2023-04-08T11:22:16.563Z,16.45
2023-04-08T11:23:19.061Z,16.45
2023-04-08T11:24:21.440Z,16.48
2023-04-08T11:25:23.832Z,16.51
2023-04-08T11:26:27.066Z,16.54
2023-04-08T11:27:29.468Z,16.56
2023-04-08T11:28:32.292Z,16.61
2023-04-08T11:29:35.007Z,16.65
2023-04-08T11:30:41.461Z,16.69
2023-04-08T11:31:44.610Z,16.74
2023-04-08T11:32:47.538Z,16.77
2023-04-08T11:33:53.468Z,16.81
2023-04-08T11:34:55.759Z,16.88
2023-04-08T11:36:01.720Z,16.94
2023-04-08T11:37:03.971Z,17.00
2023-04-08T11:38:06.131Z,17.05
2023-04-08T11:39:11.764Z,17.09
2023-04-08T11:40:18.002Z,17.12
2023-04-08T11:41:20.369Z,17.15
2023-04-08T11:42:32.945Z,17.19
2023-04-08T11:43:35.469Z,17.23
2023-04-08T11:44:38.078Z,17.26
2023-04-08T11:45:42.471Z,17.28
2023-04-08T11:46:52.419Z,17.32
2023-04-08T11:47:55.631Z,17.34
2023-04-08T11:50:10.162Z,17.54
2023-04-08T11:51:12.365Z,17.51
2023-04-08T11:52:14.631Z,17.54
2023-04-08T11:53:19.423Z,17.57
2023-04-08T11:54:32.249Z,17.59
2023-04-08T12:10:16.443Z,17.34
2023-04-08T12:11:20.236Z,17.27
2023-04-08T12:12:22.656Z,17.31
2023-04-08T12:13:24.914Z,17.37
2023-04-08T12:14:28.609Z,17.42
2023-04-08T12:15:31.255Z,17.45
2023-04-08T12:16:33.732Z,17.52
2023-04-08T12:17:36.123Z,17.57
2023-04-08T12:18:38.517Z,17.63
2023-04-08T12:19:40.732Z,17.69
2023-04-08T12:20:43.758Z,17.75
2023-04-08T12:21:46.098Z,17.80
2023-04-08T12:22:49.381Z,17.80
2023-04-08T12:23:52.153Z,17.82
2023-04-08T12:24:54.838Z,17.81
2023-04-08T12:25:57.178Z,17.74
2023-04-08T12:26:59.655Z,17.62
2023-04-08T12:28:02.017Z,17.52
2023-04-08T12:29:04.133Z,17.39
2023-04-08T12:30:09.463Z,17.26
2023-04-08T12:31:12.176Z,17.14
2023-04-08T12:32:14.876Z,17.03
2023-04-08T12:33:17.069Z,16.91
2023-04-08T12:34:19.396Z,16.86
2023-04-08T12:35:21.723Z,16.81
2023-04-08T12:36:24.297Z,16.76
2023-04-08T12:37:28.642Z,16.73
2023-04-08T12:38:31.105Z,16.72
2023-04-08T12:39:33.708Z,16.71
2023-04-08T12:40:36.452Z,16.71
2023-04-08T12:41:38.877Z,16.74
2023-04-08T12:42:41.225Z,16.75
2023-04-08T12:43:43.974Z,16.76
2023-04-08T12:44:46.659Z,16.76
2023-04-08T12:45:49.011Z,16.75
2023-04-08T12:46:51.576Z,16.75
2023-04-08T12:47:54.581Z,16.73
2023-04-08T12:49:04.171Z,16.70
2023-04-08T12:50:01.625Z,16.68
2023-04-08T12:51:03.901Z,16.65
2023-04-08T12:52:06.217Z,16.61
2023-04-08T12:53:08.427Z,16.60
2023-04-08T12:54:10.739Z,16.56
2023-04-08T12:55:13.526Z,16.54
2023-04-08T12:56:16.684Z,16.51
2023-04-08T12:57:18.937Z,16.51
2023-04-08T12:58:22.633Z,16.48
2023-04-08T12:59:24.999Z,16.46
2023-04-08T13:00:27.247Z,16.44
2023-04-08T13:01:30.193Z,16.41
2023-04-08T13:02:32.759Z,16.38
2023-04-08T13:03:35.113Z,16.34
2023-04-08T13:04:37.693Z,16.31
2023-04-08T13:05:43.678Z,16.28
2023-04-08T13:06:45.311Z,16.24
2023-04-08T13:07:47.844Z,16.13
2023-04-08T13:08:50.393Z,15.98
2023-04-08T13:09:52.882Z,15.84
2023-04-08T13:10:55.301Z,15.67
2023-04-08T13:11:57.572Z,15.57
2023-04-08T13:12:59.778Z,15.36
2023-04-08T13:14:02.094Z,15.24
2023-04-08T13:15:05.322Z,15.08
2023-04-08T13:16:07.985Z,14.95
2023-04-08T13:17:10.800Z,14.84
2023-04-08T13:18:13.587Z,14.71
2023-04-08T13:19:15.897Z,14.63
2023-04-08T13:20:18.397Z,14.42
2023-04-08T13:21:21.167Z,14.32
2023-04-08T13:22:23.562Z,14.24
2023-04-08T13:23:26.179Z,14.15
2023-04-08T13:24:28.380Z,14.03
2023-04-08T13:26:40.706Z,14.04
2023-04-08T13:27:45.337Z,13.82
2023-04-08T13:28:56.612Z,13.81
2023-04-08T13:30:15.242Z,13.75
2023-04-08T13:31:17.736Z,13.72
2023-04-08T13:32:20.186Z,13.69
2023-04-08T13:33:22.442Z,13.67
2023-04-08T13:34:24.800Z,13.62
2023-04-08T13:35:27.011Z,13.56
2023-04-08T13:36:29.412Z,13.54
2023-04-08T13:37:32.104Z,13.48
2023-04-08T13:38:34.212Z,13.42
2023-04-08T13:39:36.661Z,13.39
2023-04-08T13:40:39.077Z,13.35
2023-04-08T13:41:41.148Z,13.32
2023-04-08T13:42:43.384Z,13.29
2023-04-08T13:43:45.723Z,13.27
2023-04-08T13:44:47.961Z,13.27
2023-04-08T13:45:50.010Z,13.23
2023-04-08T13:46:52.688Z,13.20
2023-04-08T13:47:55.024Z,13.18
2023-04-08T13:48:57.874Z,13.16
2023-04-08T13:50:00.181Z,13.13
2023-04-08T13:51:02.565Z,13.11
2023-04-08T13:52:04.880Z,13.12
2023-04-08T13:53:07.197Z,13.08
2023-04-08T13:54:09.937Z,13.07
2023-04-08T13:55:12.312Z,13.07
2023-04-08T13:56:15.032Z,13.06
2023-04-08T13:57:17.367Z,13.03
2023-04-08T13:58:23.970Z,13.02
2023-04-08T13:59:23.804Z,13.03
2023-04-08T14:00:26.235Z,13.03
2023-04-08T14:01:28.833Z,13.04
2023-04-08T14:02:31.710Z,13.05
2023-04-08T14:03:34.560Z,13.08
2023-04-08T14:04:37.466Z,13.07
2023-04-08T14:05:40.321Z,13.09
2023-04-08T14:06:43.783Z,13.14
2023-04-08T14:07:46.136Z,13.16
2023-04-08T14:08:48.342Z,13.20
2023-04-08T14:09:50.548Z,13.20
2023-04-08T14:10:55.207Z,13.22
2023-04-08T14:11:57.628Z,13.25